EmailTwitter


Observations de surface / France / LFBP (07610)

Régions: Québec | Canada | États-Unis | Europe | France | UK | Ailleurs
Station
Affichage
Infos & localisation pour LFBP (07610) | Aide pour décoder les METARs

Observations prises le 2017-08-16 à 21H30 UTC à PONT-LONG-UZEIN/, FR (LFBP)

Etat du ciel: partiellement nuageux.

Température: 20.0 Celsius

Point de rosée: 18.0 Celsius

Humidité relative: 88%

Indice Humidex: 26.

Vents: Ouest-nord-ouest à 4 km/h ou 2 noeuds.

Pression au niveau moyen de la mer: 102.20 kilopascals.

Visibilité horizontale: 6.21 milles terrestres ou 9.94 kilomètres.

Hauteur du plafond: 823 mètres ( 2700 pieds ).

Observation METAR:

LFBP 162130Z AUTO 29002KT 9999 BKN027 20/18 Q1022 NOSIG=